首页
METAR-TAF:

METAR-TAF

机场 :

錫永機場

锡永, 瑞士

纬度: 46-13N, 经度: 007-20E, 海拔: 482米

当前天气观测

该预报发布于18分钟前的06:50 UTC
风速1节,风向多变
温度 12°C
湿度 76%
气压 1010 hPa
能见度10公里或以上
少量云层高于9000英尺
多云层高于15000英尺

METAR: LSGS 200650Z VRB01KT 9999 FEW090 BKN150 12/08 Q1010

时间: 09:08 (07:08 UTC)

预报

该预报发布于1小时和43分钟前的05:25 UTC
预报有效从20日的 06点(UTC)到 20日的 15点(UTC)
风速3节,风向多变
能见度10公里或以上
散云层高于5000英尺
成为
从 20日的 11点(UTC)到 20日的 13点(UTC)
风速12节,风向,有时为25节阵风

TAF: LSGS 200525Z 2006/2015 VRB03KT 9999 SCT050 BECMG 2011/2013 09012G25KT

超过4000个机场的气象观测和天气预报(METAR&TAF报告)。

可查询的气象台以黄色和红色小点在地图上表示。

将鼠标移到小点上方,可查看气象台名称。

然后点击查看天气观测和预报。

如需切换地图:点击带黑十字的绿色按钮放大地图;点击带横线的绿色按钮缩小地图;或者点击绿色箭头查看邻近地区的地图。


METAR-TAF: